Time;durP1;ratioP1;P1;durP2;ratioP2;P2;SDS_P1;SDS_P2;PMS_P1;PMS_P2;Temp;Humidity;BMP_temperature;BMP_pressure;BME280_temperature;BME280_humidity;BME280_pressure;Samples;Min_cycle;Max_cycle;Signal;HPM_P1;HPM_P2
2022/05/23 00:02:13;;;;;;;4.57;1.15;;;14.00;99.90;;;;;;5044360;28;20606;-86
2022/05/23 00:04:39;;;;;;;2.10;1.00;;;15.30;99.90;;;;;;5066536;28;20071;-78
2022/05/23 00:07:22;;;;;;;6.18;1.40;;;13.90;99.90;;;;;;5047979;28;20376;-82
2022/05/23 00:09:49;;;;;;;2.78;1.08;;;13.90;99.90;;;;;;5063952;28;20067;-87
2022/05/23 00:12:14;;;;;;;3.70;1.38;;;13.90;99.90;;;;;;5062690;28;21447;-86
2022/05/23 00:14:42;;;;;;;4.80;1.23;;;15.40;99.90;;;;;;5048332;28;20072;-84
2022/05/23 00:17:09;;;;;;;3.30;1.00;;;13.80;99.90;;;;;;5060348;28;20040;-80
2022/05/23 00:19:35;;;;;;;2.45;1.13;;;14.50;99.90;;;;;;5062514;28;20040;-85
2022/05/23 00:22:00;;;;;;;2.10;0.75;;;13.80;99.90;;;;;;5045159;28;20411;-80
2022/05/23 00:24:29;;;;;;;4.97;1.10;;;13.80;99.90;;;;;;5043907;28;20059;-81
2022/05/23 00:26:56;;;;;;;2.92;1.15;;;13.80;99.90;;;;;;5058743;28;20045;-82
2022/05/23 00:29:21;;;;;;;3.67;0.80;;;13.80;99.90;;;;;;5045886;28;20074;-85
2022/05/23 00:37:21;;;;;;;4.78;1.10;;;13.90;99.90;;;;;;5073336;28;20051;-78
2022/05/23 00:39:47;;;;;;;2.75;1.23;;;13.60;99.90;;;;;;5065143;28;20037;-82
2022/05/23 00:45:02;;;;;;;2.72;0.93;;;14.30;99.90;;;;;;5059970;28;20059;-81
2022/05/23 00:47:29;;;;;;;3.55;1.60;;;13.40;99.90;;;;;;5045018;28;20472;-85
2022/05/23 00:49:59;;;;;;;2.72;1.27;;;13.40;99.90;;;;;;5061895;28;20040;-83
2022/05/23 00:52:39;;;;;;;4.57;1.00;;;13.40;99.90;;;;;;5044630;28;20111;-84
2022/05/23 00:55:20;;;;;;;2.85;1.42;;;13.30;99.90;;;;;;5060362;28;20097;-82
2022/05/23 00:57:49;;;;;;;2.83;1.05;;;13.70;99.90;;;;;;5061326;28;20443;-85
2022/05/23 01:00:16;;;;;;;2.72;1.08;;;13.30;99.90;;;;;;5044603;28;20159;-85
2022/05/23 01:02:46;;;;;;;4.30;1.10;;;13.30;99.90;;;;;;5066774;28;20096;-85
2022/05/23 01:05:12;;;;;;;2.97;1.25;;;13.80;99.90;;;;;;5047820;28;20576;-83
2022/05/23 01:07:38;;;;;;;3.00;1.20;;;14.30;99.90;;;;;;5046601;28;20578;-86
2022/05/23 01:10:04;;;;;;;4.07;1.55;;;13.20;99.90;;;;;;5048010;28;20080;-86
2022/05/23 01:12:30;;;;;;;2.83;1.35;;;13.20;99.90;;;;;;5063137;28;20091;-87
2022/05/23 01:14:58;;;;;;;5.82;1.63;;;13.10;99.90;;;;;;5062467;28;20128;-82
2022/05/23 01:17:26;;;;;;;5.05;1.33;;;13.10;99.90;;;;;;5062201;28;20102;-81
2022/05/23 01:19:52;;;;;;;2.20;1.10;;;12.50;99.90;;;;;;5063455;28;20040;-81
2022/05/23 01:22:57;;;;;;;5.78;1.45;;;13.00;99.90;;;;;;5062938;28;20036;-85
2022/05/23 01:25:22;;;;;;;;;;;13.00;99.90;;;;;;5020379;28;20110;-83
2022/05/23 01:27:50;;;;;;;6.45;1.38;;;13.00;99.90;;;;;;5077460;28;19924;-85
2022/05/23 01:30:17;;;;;;;3.33;1.60;;;13.80;99.90;;;;;;5027813;28;20484;-85
2022/05/23 01:32:43;;;;;;;4.53;1.40;;;12.90;99.90;;;;;;5060327;28;20479;-84
2022/05/23 01:35:11;;;;;;;3.95;1.20;;;12.40;99.90;;;;;;5063212;28;20047;-86
2022/05/23 01:37:37;;;;;;;4.47;1.45;;;13.90;99.90;;;;;;5046968;28;20472;-83
2022/05/23 01:40:06;;;;;;;4.32;1.23;;;14.30;99.90;;;;;;5063307;28;20328;-82
2022/05/23 01:42:31;;;;;;;6.20;1.70;;;12.80;99.90;;;;;;5030186;28;20499;-83
2022/05/23 01:44:57;;;;;;;3.35;1.48;;;13.50;99.90;;;;;;5062537;28;20032;-82
2022/05/23 01:47:23;;;;;;;5.50;1.88;;;13.40;99.90;;;;;;5061348;28;20036;-85
2022/05/23 01:49:48;;;;;;;5.93;1.40;;;13.10;99.90;;;;;;5062212;28;20056;-84
2022/05/23 01:52:14;;;;;;;3.33;1.30;;;13.50;99.90;;;;;;5059902;28;20063;-86
2022/05/23 01:54:40;;;;;;;4.10;1.70;;;12.90;99.90;;;;;;5038545;28;20044;-85
2022/05/23 01:57:08;;;;;;;5.75;1.90;;;13.80;99.90;;;;;;5040473;28;20043;-87
2022/05/23 02:02:18;;;;;;;3.25;1.80;;;12.80;99.90;;;;;;5059374;28;20048;-82
2022/05/23 02:04:45;;;;;;;4.75;1.52;;;13.80;99.90;;;;;;5057780;28;20048;-84
2022/05/23 02:07:11;;;;;;;3.78;1.75;;;12.20;99.90;;;;;;5057996;28;20045;-82
2022/05/23 02:09:40;;;;;;;4.35;1.83;;;13.90;99.90;;;;;;5057449;28;20233;-82
2022/05/23 02:12:07;;;;;;;3.53;1.83;;;12.60;99.90;;;;;;5057173;28;20052;-85
2022/05/23 02:14:34;;;;;;;6.10;2.50;;;12.90;99.90;;;;;;5063446;28;20033;-85
2022/05/23 02:17:00;;;;;;;5.25;1.75;;;12.80;99.90;;;;;;5071532;28;20505;-81
2022/05/23 02:19:26;;;;;;;5.25;1.80;;;14.00;99.90;;;;;;5065972;28;20064;-87
2022/05/23 02:21:52;;;;;;;4.75;2.20;;;12.80;99.90;;;;;;5043724;28;20043;-83
2022/05/23 02:24:18;;;;;;;4.68;1.75;;;14.00;99.90;;;;;;5060486;28;20049;-86
2022/05/23 02:26:43;;;;;;;8.00;1.98;;;12.80;99.90;;;;;;5042267;28;20044;-86
2022/05/23 02:29:10;;;;;;;4.40;2.13;;;13.70;99.90;;;;;;5058343;28;20142;-82
2022/05/23 02:31:36;;;;;;;3.92;1.73;;;13.90;99.90;;;;;;5042422;28;20067;-86
2022/05/23 02:34:03;;;;;;;7.38;2.20;;;12.80;99.90;;;;;;5046291;28;20121;-83
2022/05/23 02:36:30;;;;;;;5.93;1.70;;;14.30;99.90;;;;;;5046669;28;20049;-86
2022/05/23 02:38:56;;;;;;;4.82;1.80;;;12.90;99.90;;;;;;5063110;28;20465;-86
2022/05/23 02:41:22;;;;;;;6.22;2.33;;;12.40;99.90;;;;;;5048335;28;20052;-86
2022/05/23 02:43:48;;;;;;;3.95;2.00;;;11.80;99.90;;;;;;5062413;28;20041;-86
2022/05/23 02:46:14;;;;;;;2.28;1.40;;;14.50;99.90;;;;;;5043907;28;20051;-84
2022/05/23 02:48:40;;;;;;;5.82;2.20;;;12.70;99.90;;;;;;5045782;28;20040;-83
2022/05/23 02:51:06;;;;;;;4.28;1.92;;;12.90;99.90;;;;;;5062943;28;20182;-86
2022/05/23 02:53:32;;;;;;;5.25;2.08;;;14.40;99.90;;;;;;5064484;28;20373;-82
2022/05/23 02:56:00;;;;;;;2.33;1.60;;;12.90;99.90;;;;;;5061937;28;20121;-87
2022/05/23 02:58:26;;;;;;;3.60;2.40;;;12.90;99.90;;;;;;5066145;28;20087;-85
2022/05/23 03:00:51;;;;;;;6.35;2.47;;;12.90;99.90;;;;;;5061145;28;20063;-80
2022/05/23 03:03:17;;;;;;;4.97;2.50;;;12.10;99.90;;;;;;5065280;28;20036;-86
2022/05/23 03:05:48;;;;;;;3.97;2.38;;;12.70;99.90;;;;;;5044408;28;20808;-81
2022/05/23 03:08:17;;;;;;;5.45;1.98;;;12.80;99.90;;;;;;5050011;28;20128;-84
2022/05/23 03:10:43;;;;;;;4.65;3.15;;;13.80;99.90;;;;;;5051184;28;20048;-86
2022/05/23 03:13:09;;;;;;;5.38;2.30;;;13.30;99.90;;;;;;5064735;28;20102;-81
2022/05/23 03:15:35;;;;;;;3.50;1.90;;;12.30;99.90;;;;;;5047118;28;20131;-85
2022/05/23 03:18:01;;;;;;;4.32;2.80;;;12.60;99.90;;;;;;5067068;28;20047;-86
2022/05/23 03:20:27;;;;;;;6.13;2.40;;;12.60;99.90;;;;;;5049279;28;20040;-85
2022/05/23 03:28:21;;;;;;;2.72;2.22;;;13.90;99.90;;;;;;5063486;28;20063;-84
2022/05/23 03:30:48;;;;;;;4.80;2.53;;;12.30;99.90;;;;;;5044579;28;20033;-80
2022/05/23 03:33:15;;;;;;;3.97;2.38;;;12.40;99.90;;;;;;5062052;28;20041;-86
2022/05/23 03:35:43;;;;;;;4.03;2.28;;;12.80;99.90;;;;;;5043470;28;20041;-86
2022/05/23 03:38:10;;;;;;;4.18;2.30;;;12.50;99.90;;;;;;5064829;28;20036;-86
2022/05/23 03:40:37;;;;;;;3.58;2.30;;;12.40;99.90;;;;;;5066108;28;20065;-81
2022/05/23 03:43:04;;;;;;;10.80;3.13;;;12.40;99.90;;;;;;5064962;28;20131;-83
2022/05/23 03:45:30;;;;;;;7.28;2.83;;;12.50;99.90;;;;;;5034222;28;20051;-85
2022/05/23 03:47:58;;;;;;;4.85;2.08;;;12.50;99.90;;;;;;5061421;28;20484;-81
2022/05/23 03:50:27;;;;;;;8.35;2.38;;;11.90;99.90;;;;;;5065477;28;20106;-85
2022/05/23 03:52:53;;;;;;;4.07;2.35;;;12.50;99.90;;;;;;5049690;28;20047;-82
2022/05/23 03:55:20;;;;;;;5.20;2.28;;;14.10;99.90;;;;;;5066109;28;20044;-84
2022/05/23 03:57:46;;;;;;;3.17;2.22;;;12.50;99.90;;;;;;5058867;28;20093;-80
2022/05/23 04:00:12;;;;;;;5.75;2.40;;;12.50;99.90;;;;;;5068269;28;20488;-84
2022/05/23 04:02:39;;;;;;;3.72;2.20;;;12.50;99.90;;;;;;5064491;28;20059;-84
2022/05/23 04:05:05;;;;;;;7.47;2.40;;;12.50;99.90;;;;;;5047950;28;20108;-85
2022/05/23 04:07:33;;;;;;;6.10;2.28;;;12.60;99.90;;;;;;5048451;28;20360;-85
2022/05/23 04:09:59;;;;;;;6.13;2.25;;;11.60;99.90;;;;;;5045329;28;20045;-82
2022/05/23 04:12:24;;;;;;;7.28;2.88;;;13.80;99.90;;;;;;5046732;28;20464;-79
2022/05/23 04:14:50;;;;;;;5.30;2.60;;;12.50;99.90;;;;;;5047621;28;20325;-83
2022/05/23 04:17:16;;;;;;;7.43;3.10;;;12.60;99.90;;;;;;5062133;28;20043;-84
2022/05/23 04:19:41;;;;;;;6.47;2.72;;;12.60;99.90;;;;;;5065843;28;20467;-86
2022/05/23 04:22:07;;;;;;;3.58;2.28;;;13.80;99.90;;;;;;5065841;28;20040;-83
2022/05/23 04:24:32;;;;;;;5.28;2.97;;;12.70;99.90;;;;;;5064182;28;20675;-85
2022/05/23 04:26:58;;;;;;;2.60;2.10;;;14.10;99.90;;;;;;5064320;28;20081;-85
2022/05/23 04:29:25;;;;;;;4.05;2.30;;;12.60;99.90;;;;;;5031559;28;20404;-85
2022/05/23 04:31:50;;;;;;;6.78;3.33;;;12.60;99.90;;;;;;5063107;28;20036;-86
2022/05/23 04:37:02;;;;;;;;;;;13.70;99.90;;;;;;5062598;28;20040;-83
2022/05/23 04:39:27;;;;;;;7.00;3.03;;;12.60;99.90;;;;;;5062104;28;20015;-85
2022/05/23 04:41:54;;;;;;;7.03;3.17;;;12.10;99.90;;;;;;5062496;28;20527;-86
2022/05/23 04:44:20;;;;;;;4.00;2.60;;;12.30;99.90;;;;;;5056788;28;20512;-81
2022/05/23 04:49:42;;;;;;;6.55;3.22;;;12.50;99.90;;;;;;5058446;28;20127;-82
2022/05/23 04:52:12;;;;;;;9.88;3.30;;;13.80;99.90;;;;;;5043078;28;20082;-83
2022/05/23 04:54:39;;;;;;;6.90;3.10;;;13.90;99.90;;;;;;5054695;28;20040;-82
2022/05/23 04:57:06;;;;;;;4.10;2.90;;;13.60;99.90;;;;;;5055053;28;20040;-84
2022/05/23 04:59:32;;;;;;;6.03;3.10;;;12.70;99.90;;;;;;5025439;28;20519;-84
2022/05/23 05:01:58;;;;;;;3.28;2.80;;;12.70;99.90;;;;;;5057642;28;20032;-84
2022/05/23 05:04:24;;;;;;;5.80;2.88;;;14.10;99.90;;;;;;5057561;28;20049;-82
2022/05/23 05:06:49;;;;;;;7.88;3.47;;;12.70;99.90;;;;;;5065739;28;20412;-85
2022/05/23 05:09:15;;;;;;;5.63;3.47;;;12.70;99.90;;;;;;5059324;28;20228;-84
2022/05/23 05:11:40;;;;;;;7.47;3.88;;;14.50;99.90;;;;;;5055261;28;20086;-82
2022/05/23 05:14:06;;;;;;;5.75;3.25;;;12.80;99.90;;;;;;5035791;28;20113;-81
2022/05/23 05:16:33;;;;;;;5.78;3.40;;;14.30;99.90;;;;;;5062372;28;20044;-83
2022/05/23 05:18:59;;;;;;;4.95;3.20;;;12.90;99.90;;;;;;5063195;28;20055;-85
2022/05/23 05:21:25;;;;;;;7.32;3.42;;;12.90;99.90;;;;;;5046357;28;20048;-85
2022/05/23 05:23:51;;;;;;;5.18;3.20;;;12.90;99.90;;;;;;5048775;28;20043;-80
2022/05/23 05:26:17;;;;;;;5.28;3.00;;;12.90;99.90;;;;;;5065865;28;20053;-76
2022/05/23 05:28:42;;;;;;;8.07;3.35;;;12.90;99.90;;;;;;5040504;28;20048;-84
2022/05/23 05:31:17;;;;;;;4.22;3.45;;;13.10;99.90;;;;;;5063822;28;20048;-83
2022/05/23 05:33:52;;;;;;;5.68;3.42;;;13.00;99.90;;;;;;5050513;28;20032;-86
2022/05/23 05:36:22;;;;;;;6.97;3.65;;;13.00;99.90;;;;;;5063881;28;20064;-86
2022/05/23 05:38:53;;;;;;;5.50;3.08;;;13.10;99.90;;;;;;5040330;28;20496;-84
2022/05/23 05:41:25;;;;;;;6.53;3.20;;;14.50;99.90;;;;;;5061549;28;20487;-82
2022/05/23 05:44:00;;;;;;;10.94;3.90;;;14.10;99.90;;;;;;4711697;28;10001265;-78
2022/05/23 05:46:31;;;;;;;4.97;3.20;;;13.10;99.90;;;;;;5036919;28;20465;-85
2022/05/23 05:49:00;;;;;;;4.10;3.38;;;13.80;99.90;;;;;;5036632;28;20555;-83
2022/05/23 05:51:27;;;;;;;4.88;3.72;;;14.40;99.90;;;;;;5036739;28;20076;-82
2022/05/23 05:53:53;;;;;;;6.43;3.30;;;13.20;99.90;;;;;;5059910;28;20041;-84
2022/05/23 05:56:19;;;;;;;7.63;3.40;;;13.20;99.90;;;;;;5054067;28;20051;-84
2022/05/23 05:58:45;;;;;;;4.05;3.30;;;14.40;99.90;;;;;;5062999;28;20480;-85
2022/05/23 06:01:10;;;;;;;8.27;3.47;;;13.40;99.90;;;;;;5049861;28;20387;-87
2022/05/23 06:03:36;;;;;;;3.90;3.53;;;13.30;99.90;;;;;;5042940;28;20036;-82
2022/05/23 06:11:32;;;;;;;7.30;4.00;;;13.60;99.90;;;;;;5055375;28;20127;-84
2022/05/23 06:13:59;;;;;;;7.25;3.67;;;15.00;99.90;;;;;;5039075;28;20044;-85
2022/05/23 06:16:31;;;;;;;8.57;3.53;;;14.00;99.90;;;;;;5040286;28;20052;-84
2022/05/23 06:18:57;;;;;;;7.68;4.13;;;14.50;99.90;;;;;;5036434;28;20117;-85
2022/05/23 06:21:25;;;;;;;10.57;3.55;;;13.70;99.90;;;;;;5038497;28;20093;-84
2022/05/23 06:23:51;;;;;;;8.65;4.10;;;14.90;99.90;;;;;;5052599;28;20055;-84
2022/05/23 06:26:21;;;;;;;5.93;3.85;;;13.80;99.90;;;;;;5065645;28;20131;-81
2022/05/23 06:28:47;;;;;;;10.43;4.07;;;15.20;99.90;;;;;;5049187;28;20216;-87
2022/05/23 06:31:15;;;;;;;5.28;3.40;;;15.10;99.90;;;;;;5053297;28;21294;-83
2022/05/23 06:33:41;;;;;;;5.63;3.78;;;14.10;99.90;;;;;;5046541;28;20154;-87
2022/05/23 06:36:09;;;;;;;7.32;3.60;;;14.10;99.90;;;;;;5060359;28;20044;-86
2022/05/23 06:38:37;;;;;;;6.07;4.07;;;14.20;99.90;;;;;;5063250;28;20044;-87
2022/05/23 06:41:06;;;;;;;10.20;3.63;;;14.30;99.90;;;;;;5043632;28;20102;-87
2022/05/23 06:43:32;;;;;;;10.07;7.05;;;13.90;99.90;;;;;;5059235;28;20048;-86
2022/05/23 06:46:02;;;;;;;6.57;4.80;;;14.80;99.90;;;;;;5044988;28;20453;-85
2022/05/23 06:48:28;;;;;;;6.78;3.70;;;14.40;99.90;;;;;;5040636;28;20069;-87
2022/05/23 06:50:54;;;;;;;6.05;3.92;;;13.80;99.90;;;;;;5067192;28;20235;-85
2022/05/23 06:53:22;;;;;;;10.75;3.95;;;15.80;99.90;;;;;;5062268;28;20378;-83
2022/05/23 06:55:49;;;;;;;5.13;3.60;;;14.60;99.90;;;;;;5062285;28;20043;-85
2022/05/23 06:58:14;;;;;;;7.00;3.38;;;14.60;99.90;;;;;;5066748;28;20378;-86
2022/05/23 07:00:40;;;;;;;7.78;3.55;;;14.50;99.90;;;;;;5057356;28;20052;-82
2022/05/23 07:03:06;;;;;;;6.63;3.72;;;14.70;99.90;;;;;;5060449;28;20045;-83
2022/05/23 07:13:48;;;;;;;6.70;3.85;;;14.90;99.90;;;;;;5063687;28;20396;-86
2022/05/23 07:16:16;;;;;;;5.50;3.65;;;15.00;99.90;;;;;;5057496;28;20041;-85
2022/05/23 07:18:42;;;;;;;8.45;3.47;;;16.10;99.90;;;;;;5065261;28;20465;-83
2022/05/23 07:21:07;;;;;;;8.98;4.10;;;15.10;99.90;;;;;;5070816;28;20041;-86
2022/05/23 07:23:35;;;;;;;8.35;3.70;;;15.20;99.90;;;;;;5061588;28;20119;-84
2022/05/23 07:26:06;;;;;;;12.25;4.03;;;15.20;99.90;;;;;;5057676;28;20056;-83
2022/05/23 07:28:32;;;;;;;5.78;3.47;;;15.40;99.90;;;;;;5044408;28;20419;-85
2022/05/23 07:30:58;;;;;;;5.25;3.35;;;15.40;99.90;;;;;;5058840;28;20043;-85
2022/05/23 07:33:24;;;;;;;6.75;3.85;;;15.50;99.90;;;;;;5057052;28;20069;-86
2022/05/23 07:36:01;;;;;;;8.68;4.25;;;15.50;99.90;;;;;;5058871;28;20585;-86
2022/05/23 07:38:28;;;;;;;8.07;3.88;;;15.60;99.90;;;;;;5062728;28;20140;-86
2022/05/23 07:40:55;;;;;;;5.43;3.42;;;15.70;99.90;;;;;;5040552;28;20206;-85
2022/05/23 07:43:21;;;;;;;10.57;5.07;;;15.80;99.90;;;;;;5067647;28;20119;-80
2022/05/23 07:45:49;;;;;;;5.53;3.60;;;15.90;99.90;;;;;;5064270;28;20059;-82
2022/05/23 07:48:15;;;;;;;8.20;4.13;;;15.90;99.90;;;;;;5062105;28;20045;-81
2022/05/23 07:50:43;;;;;;;7.03;4.20;;;16.00;99.90;;;;;;5048214;28;20048;-79
2022/05/23 08:01:22;;;;;;;7.15;3.75;;;17.00;99.90;;;;;;5057199;28;19932;-82
2022/05/23 08:03:48;;;;;;;8.40;6.22;;;16.20;99.90;;;;;;5061501;28;20048;-82
2022/05/23 08:06:14;;;;;;;8.32;4.13;;;16.30;99.90;;;;;;5067171;28;20082;-82
2022/05/23 08:08:39;;;;;;;6.68;3.53;;;16.50;99.90;;;;;;5056155;28;20052;-81
2022/05/23 08:11:08;;;;;;;5.10;3.88;;;16.50;99.90;;;;;;5049611;28;20051;-80
2022/05/23 08:13:36;;;;;;;7.40;3.95;;;16.50;99.90;;;;;;5063606;28;20053;-80
2022/05/23 08:16:02;;;;;;;9.13;4.18;;;16.60;99.90;;;;;;5057951;28;20044;-82
2022/05/23 08:18:27;;;;;;;7.15;3.95;;;16.60;99.90;;;;;;5051394;28;20090;-83
2022/05/23 08:20:53;;;;;;;5.72;3.58;;;16.60;99.90;;;;;;5067573;28;20040;-82
2022/05/23 08:23:18;;;;;;;6.78;3.38;;;16.80;99.90;;;;;;5062026;28;20051;-85
2022/05/23 08:25:44;;;;;;;8.18;3.50;;;16.80;99.90;;;;;;5051219;28;20044;-85
2022/05/23 08:28:10;;;;;;;8.68;3.85;;;17.00;99.90;;;;;;5065991;28;20484;-84
2022/05/23 08:30:35;;;;;;;7.90;4.47;;;17.10;99.90;;;;;;5067552;28;20028;-84
2022/05/23 08:33:01;;;;;;;11.27;4.20;;;17.30;99.90;;;;;;5033911;28;20115;-85
2022/05/23 08:35:27;;;;;;;9.35;4.07;;;17.40;99.90;;;;;;5072124;28;20504;-81
2022/05/23 08:37:58;;;;;;;10.45;3.78;;;17.50;99.90;;;;;;5059486;28;20049;-83
2022/05/23 08:40:37;;;;;;;6.72;4.10;;;17.60;99.90;;;;;;5066316;28;20493;-84
2022/05/23 08:43:05;;;;;;;6.88;4.40;;;17.70;99.90;;;;;;5066398;28;20044;-84
2022/05/23 08:45:39;;;;;;;9.25;4.90;;;17.70;99.90;;;;;;5041862;28;20040;-82
2022/05/23 08:48:23;;;;;;;;;;;17.70;99.90;;;;;;5045053;28;20519;-81
2022/05/23 08:51:06;;;;;;;8.32;4.03;;;17.80;99.90;;;;;;5068476;28;19955;-84
2022/05/23 08:53:48;;;;;;;5.38;4.20;;;17.80;99.90;;;;;;5060990;28;20115;-84
2022/05/23 08:56:29;;;;;;;5.82;3.83;;;17.90;99.90;;;;;;5061927;28;20377;-84
2022/05/23 08:58:59;;;;;;;5.85;4.35;;;18.10;99.90;;;;;;5066225;28;20040;-85
2022/05/23 09:01:38;;;;;;;9.70;4.05;;;18.20;99.90;;;;;;5066950;28;20099;-84
2022/05/23 09:04:15;;;;;;;6.65;3.85;;;18.40;99.90;;;;;;5075268;28;20483;-83
2022/05/23 09:06:48;;;;;;;7.22;3.63;;;18.50;99.90;;;;;;5062859;28;20523;-83
2022/05/23 09:09:17;;;;;;;16.70;4.85;;;18.80;99.90;;;;;;5038002;28;20045;-84
2022/05/23 09:11:45;;;;;;;11.27;3.78;;;19.00;99.90;;;;;;5044401;28;20040;-79
2022/05/23 09:14:14;;;;;;;4.82;3.50;;;19.20;99.90;;;;;;5061519;28;20598;-79
2022/05/23 09:16:52;;;;;;;7.13;4.32;;;19.30;99.90;;;;;;5061746;28;20049;-77
2022/05/23 09:19:33;;;;;;;6.03;3.45;;;19.40;99.90;;;;;;5059340;28;20039;-79
2022/05/23 09:22:15;;;;;;;4.30;3.70;;;19.50;99.90;;;;;;5058947;28;20044;-78
2022/05/23 09:24:54;;;;;;;9.70;3.95;;;19.60;99.90;;;;;;5056026;28;20063;-80
2022/05/23 09:27:30;;;;;;;6.10;3.60;;;19.70;99.90;;;;;;5059842;28;20041;-80
2022/05/23 09:29:58;;;;;;;6.85;4.38;;;19.80;99.90;;;;;;5059077;28;20040;-79
2022/05/23 09:32:26;;;;;;;7.88;3.80;;;20.00;99.90;;;;;;5061819;28;20032;-80
2022/05/23 09:35:01;;;;;;;6.80;3.95;;;20.30;99.90;;;;;;5042717;28;20484;-79
2022/05/23 09:37:38;;;;;;;5.45;3.53;;;20.20;99.90;;;;;;5046745;28;20480;-79
2022/05/23 09:40:08;;;;;;;5.97;3.85;;;20.70;99.90;;;;;;5059785;28;20506;-80
2022/05/23 09:48:18;;;;;;;8.30;2.90;;;20.60;99.90;;;;;;5057889;28;20056;-79
2022/05/23 09:50:52;;;;;;;7.18;2.45;;;20.70;99.90;;;;;;5061554;28;20028;-76
2022/05/23 09:53:24;;;;;;;5.55;2.45;;;20.70;99.90;;;;;;5058967;28;20048;-80
2022/05/23 09:55:50;;;;;;;5.32;2.25;;;20.70;99.90;;;;;;5061889;28;20047;-78
2022/05/23 09:58:34;;;;;;;5.68;2.55;;;20.70;99.90;;;;;;5059914;28;20036;-80
2022/05/23 10:01:04;;;;;;;2.95;2.10;;;20.70;99.90;;;;;;5046900;28;20138;-79
2022/05/23 10:03:31;;;;;;;4.72;2.10;;;20.70;99.90;;;;;;5056582;28;20069;-80
2022/05/23 10:06:03;;;;;;;4.07;1.92;;;20.70;99.90;;;;;;5060603;28;20048;-79
2022/05/23 10:08:44;;;;;;;4.97;1.50;;;20.70;99.90;;;;;;5055076;28;20052;-79
2022/05/23 10:11:31;;;;;;;8.32;2.28;;;20.70;99.90;;;;;;5068767;28;20086;-77
2022/05/23 10:14:15;;;;;;;4.40;1.67;;;20.80;99.90;;;;;;5047301;28;20086;-77
2022/05/23 10:16:50;;;;;;;7.32;2.17;;;21.00;99.90;;;;;;5055480;28;20076;-77
2022/05/23 10:19:37;;;;;;;3.42;1.67;;;21.10;99.90;;;;;;5041652;28;20755;-79
2022/05/23 10:22:18;;;;;;;3.35;1.80;;;21.10;99.90;;;;;;5056825;28;20059;-80
2022/05/23 10:24:56;;;;;;;3.70;1.45;;;21.20;99.90;;;;;;5067404;28;20083;-80
2022/05/23 10:27:47;;;;;;;2.13;1.20;;;21.30;99.90;;;;;;5036451;28;20512;-79
2022/05/23 10:30:17;;;;;;;6.85;1.85;;;21.40;99.90;;;;;;5043121;28;20041;-77
2022/05/23 10:32:48;;;;;;;3.33;1.13;;;21.40;99.90;;;;;;5056321;28;20033;-77
2022/05/23 10:35:26;;;;;;;2.97;1.35;;;21.50;99.90;;;;;;5057148;28;20047;-77
2022/05/23 10:37:52;;;;;;;3.97;1.20;;;21.60;99.90;;;;;;5077362;28;20047;-77
2022/05/23 10:43:19;;;;;;;4.30;1.30;;;21.80;99.90;;;;;;5059925;28;20397;-76
2022/05/23 10:45:53;;;;;;;3.42;0.95;;;22.00;99.90;;;;;;5055390;28;20120;-77
2022/05/23 10:48:24;;;;;;;5.65;1.48;;;22.20;99.90;;;;;;5051131;28;20044;-76
2022/05/23 10:51:07;;;;;;;4.10;2.30;;;22.40;99.90;;;;;;5045625;28;20063;-78
2022/05/23 10:53:58;;;;;;;4.80;2.63;;;22.40;99.90;;;;;;5044798;28;20048;-79
2022/05/23 10:56:49;;;;;;;2.03;1.17;;;22.60;99.90;;;;;;5045060;28;20045;-88
2022/05/23 10:59:29;;;;;;;6.03;1.38;;;22.70;99.90;;;;;;5053506;28;20068;-84
2022/05/23 11:02:09;;;;;;;2.08;1.38;;;22.90;99.90;;;;;;5081718;28;20052;-77
2022/05/23 11:04:53;;;;;;;7.10;1.95;;;23.00;99.90;;;;;;5041563;28;20080;-86
2022/05/23 11:07:28;;;;;;;6.15;2.25;;;23.20;99.90;;;;;;5055747;28;20125;-86
2022/05/23 11:10:14;;;;;;;6.68;1.15;;;23.30;99.90;;;;;;5058514;28;20048;-82
2022/05/23 11:13:17;;;;;;;2.95;1.20;;;23.50;99.20;;;;;;5061453;28;20056;-84
2022/05/23 11:16:01;;;;;;;2.63;1.20;;;23.60;98.30;;;;;;5064304;28;20048;-83
2022/05/23 11:18:45;;;;;;;;;;;23.80;97.00;;;;;;5065366;28;20053;-83
2022/05/23 11:21:18;;;;;;;5.38;1.00;;;24.00;96.90;;;;;;5062162;28;20015;-86
2022/05/23 11:23:49;;;;;;;2.97;1.45;;;24.10;95.80;;;;;;5068880;28;20091;-84
2022/05/23 11:26:40;;;;;;;3.08;1.45;;;24.10;95.50;;;;;;5068491;28;20453;-84
2022/05/23 11:35:10;;;;;;;3.10;1.52;;;24.30;94.70;;;;;;5062714;28;20040;-83
2022/05/23 11:37:42;;;;;;;4.65;2.05;;;24.30;93.30;;;;;;5046451;28;20093;-83
2022/05/23 11:40:11;;;;;;;3.45;1.52;;;24.50;94.10;;;;;;5060769;28;20138;-81
2022/05/23 11:43:06;;;;;;;5.70;1.23;;;24.50;94.40;;;;;;5045284;28;20080;-84
2022/05/23 11:48:34;;;;;;;7.65;1.40;;;24.40;92.90;;;;;;5066777;28;20401;-86
2022/05/23 11:51:12;;;;;;;6.55;1.60;;;24.50;93.50;;;;;;5084260;28;20052;-85
2022/05/23 11:53:42;;;;;;;3.65;1.50;;;24.50;94.10;;;;;;5063712;28;20055;-85
2022/05/23 11:56:09;;;;;;;3.25;1.45;;;24.50;94.20;;;;;;5043473;28;20094;-86
2022/05/23 11:58:36;;;;;;;2.42;1.30;;;24.50;93.90;;;;;;5061525;28;20055;-86
2022/05/23 12:01:16;;;;;;;4.35;1.35;;;24.40;94.00;;;;;;5058874;28;20057;-85
2022/05/23 12:04:01;;;;;;;3.17;1.27;;;24.50;93.80;;;;;;5069770;28;20049;-84
2022/05/23 12:06:30;;;;;;;1.55;0.98;;;24.70;93.80;;;;;;5066340;28;20049;-85
2022/05/23 12:09:13;;;;;;;4.45;1.13;;;24.40;93.70;;;;;;5063095;28;20091;-75
2022/05/23 12:11:44;;;;;;;2.75;1.30;;;24.50;93.80;;;;;;5042621;28;20459;-82
2022/05/23 12:14:16;;;;;;;1.70;0.77;;;24.40;93.60;;;;;;5060743;28;20068;-85
2022/05/23 12:16:59;;;;;;;2.33;0.98;;;24.30;93.80;;;;;;5041320;28;20111;-82
2022/05/23 12:19:39;;;;;;;4.00;1.33;;;24.30;93.10;;;;;;5064454;28;20033;-86
2022/05/23 12:22:14;;;;;;;2.30;1.00;;;24.20;92.90;;;;;;5045318;28;20074;-79
2022/05/23 12:24:57;;;;;;;4.45;1.00;;;24.00;93.30;;;;;;5083266;28;20040;-78
2022/05/23 12:27:33;;;;;;;2.35;0.75;;;24.20;91.20;;;;;;5039483;28;20094;-83
2022/05/23 12:30:17;;;;;;;4.57;1.10;;;23.90;92.30;;;;;;5046194;28;20526;-77
2022/05/23 12:33:03;;;;;;;;;;;23.90;92.40;;;;;;5064210;28;20139;-76
2022/05/23 12:35:40;;;;;;;2.22;0.90;;;23.70;93.20;;;;;;5059137;28;19921;-78
2022/05/23 12:38:19;;;;;;;2.17;1.00;;;23.60;93.00;;;;;;5042057;28;20033;-78
2022/05/23 12:41:13;;;;;;;3.92;1.10;;;23.60;92.20;;;;;;5060811;28;20061;-76
2022/05/23 12:44:07;;;;;;;4.45;1.00;;;23.50;92.70;;;;;;5030950;28;20048;-81
2022/05/23 12:46:39;;;;;;;3.95;1.00;;;23.40;92.80;;;;;;5062733;28;20040;-80
2022/05/23 12:49:19;;;;;;;3.25;1.20;;;23.40;93.60;;;;;;5063885;28;20047;-79
2022/05/23 12:51:47;;;;;;;1.23;0.70;;;23.40;93.50;;;;;;5042652;28;20463;-82
2022/05/23 12:54:27;;;;;;;1.73;0.90;;;23.80;94.30;;;;;;5041279;28;20557;-82
2022/05/23 12:57:17;;;;;;;2.70;0.80;;;23.40;94.90;;;;;;5061634;28;20045;-82
2022/05/23 12:59:55;;;;;;;4.85;1.13;;;23.40;95.60;;;;;;5061651;28;20087;-81
2022/05/23 13:02:28;;;;;;;5.05;1.10;;;23.40;95.40;;;;;;5057848;28;20404;-81
2022/05/23 13:05:12;;;;;;;5.27;1.17;;;23.40;94.50;;;;;;5055795;28;20049;-82
2022/05/23 13:07:44;;;;;;;;;;;23.30;94.30;;;;;;5063873;28;20797;-84
2022/05/23 13:10:21;;;;;;;4.75;1.10;;;23.20;94.80;;;;;;5042824;28;20009;-81
2022/05/23 13:13:15;;;;;;;3.72;1.00;;;23.20;94.60;;;;;;5062657;28;20092;-81
2022/05/23 13:15:41;;;;;;;4.68;1.77;;;23.20;94.50;;;;;;5042456;28;20044;-84
2022/05/23 13:23:39;;;;;;;6.70;1.83;;;23.00;95.90;;;;;;5053636;28;20044;-84
2022/05/23 13:26:10;;;;;;;5.85;1.80;;;23.20;96.20;;;;;;5043925;28;20419;-82
2022/05/23 13:28:41;;;;;;;5.82;2.15;;;23.30;96.20;;;;;;5066606;28;20074;-82
2022/05/23 13:31:22;;;;;;;4.60;1.65;;;22.90;96.60;;;;;;5058030;28;20041;-84
2022/05/23 13:33:48;;;;;;;2.50;1.48;;;23.00;97.50;;;;;;5064172;28;20085;-86
2022/05/23 13:36:14;;;;;;;6.80;1.48;;;22.80;97.40;;;;;;5064572;28;20037;-86
2022/05/23 13:38:43;;;;;;;5.68;1.88;;;22.80;97.40;;;;;;5051591;28;20395;-88
2022/05/23 13:41:25;;;;;;;4.68;1.80;;;22.70;97.60;;;;;;5049729;28;20127;-88
2022/05/23 13:43:51;;;;;;;4.72;1.08;;;22.90;97.90;;;;;;5061808;28;20084;-88
2022/05/23 13:46:34;;;;;;;3.67;1.20;;;23.30;98.40;;;;;;5063015;28;20083;-89
2022/05/23 13:49:11;;;;;;;2.88;1.20;;;22.60;98.60;;;;;;5059263;28;20044;-88
2022/05/23 13:51:42;;;;;;;5.45;1.75;;;22.60;98.80;;;;;;5041837;28;20047;-87
2022/05/23 13:54:34;;;;;;;5.07;1.40;;;22.60;98.70;;;;;;5065034;28;20060;-88
2022/05/23 13:57:09;;;;;;;2.65;1.60;;;22.60;99.10;;;;;;5044826;28;20113;-86
2022/05/23 13:59:45;;;;;;;3.58;1.13;;;22.70;99.20;;;;;;5048975;28;20040;-88
2022/05/23 14:02:17;;;;;;;4.07;1.48;;;22.80;98.80;;;;;;5066974;28;20098;-86
2022/05/23 14:04:44;;;;;;;4.15;1.30;;;22.90;99.30;;;;;;5066238;28;20474;-87
2022/05/23 14:07:20;;;;;;;2.85;1.23;;;23.00;99.60;;;;;;5058745;28;20040;-86
2022/05/23 14:09:52;;;;;;;4.28;1.65;;;23.10;99.20;;;;;;5059198;28;20040;-83
2022/05/23 14:12:21;;;;;;;3.10;1.40;;;23.10;99.10;;;;;;5022290;28;20082;-86
2022/05/23 14:15:02;;;;;;;2.75;1.33;;;23.10;98.80;;;;;;5038874;28;20052;-85